Time;durP1;ratioP1;P1;durP2;ratioP2;P2;SDS_P1;SDS_P2;PMS_P1;PMS_P2;Temp;Humidity;BMP_temperature;BMP_pressure;BME280_temperature;BME280_humidity;BME280_pressure;Samples;Min_cycle;Max_cycle;Signal;HPM_P1;HPM_P2
2022/08/03 00:01:39;;;;;;;15.68;12.10;;;17.20;99.90;;;;;;5002448;28;20026;-56
2022/08/03 00:04:06;;;;;;;17.88;11.57;;;17.20;99.90;;;;;;5002981;28;20026;-55
2022/08/03 00:06:32;;;;;;;15.52;11.95;;;17.20;99.90;;;;;;4992192;28;20073;-55
2022/08/03 00:08:58;;;;;;;14.90;12.77;;;17.20;99.90;;;;;;4991836;28;20055;-56
2022/08/03 00:11:23;;;;;;;15.25;11.80;;;17.20;99.90;;;;;;4991459;28;20085;-55
2022/08/03 00:13:49;;;;;;;18.48;13.18;;;17.10;99.90;;;;;;4991222;28;20022;-56
2022/08/03 00:16:15;;;;;;;16.27;12.35;;;17.20;99.90;;;;;;4989973;28;20377;-56
2022/08/03 00:18:41;;;;;;;15.68;12.70;;;17.30;99.90;;;;;;4991275;28;20474;-56
2022/08/03 00:21:07;;;;;;;21.70;12.50;;;17.20;99.90;;;;;;4991772;28;20114;-56
2022/08/03 00:23:33;;;;;;;16.90;12.88;;;17.10;99.90;;;;;;5001981;28;20030;-56
2022/08/03 00:25:59;;;;;;;16.80;12.48;;;17.00;99.90;;;;;;5000889;28;20073;-56
2022/08/03 00:28:25;;;;;;;17.70;12.65;;;17.00;99.90;;;;;;5008286;28;20458;-56
2022/08/03 00:30:51;;;;;;;14.55;11.27;;;17.00;99.90;;;;;;5010831;28;20034;-56
2022/08/03 00:33:16;;;;;;;15.50;11.85;;;17.00;99.90;;;;;;5011875;28;20060;-56
2022/08/03 00:35:42;;;;;;;16.50;12.38;;;17.00;99.90;;;;;;5011897;28;20029;-56
2022/08/03 00:38:08;;;;;;;17.75;12.88;;;16.90;99.90;;;;;;5011872;28;20152;-55
2022/08/03 00:40:34;;;;;;;17.00;13.40;;;16.90;99.90;;;;;;5011959;28;20473;-56
2022/08/03 00:43:02;;;;;;;17.73;12.90;;;16.80;99.90;;;;;;5012037;28;20033;-55
2022/08/03 00:45:36;;;;;;;16.42;13.43;;;16.90;99.90;;;;;;5011334;28;20044;-55
2022/08/03 00:48:04;;;;;;;18.13;14.35;;;16.90;99.90;;;;;;5004263;28;20037;-55
2022/08/03 00:50:37;;;;;;;19.25;16.23;;;16.80;99.90;;;;;;5011536;28;20030;-56
2022/08/03 00:53:05;;;;;;;19.83;15.43;;;16.70;99.90;;;;;;5011501;28;20025;-56
2022/08/03 00:55:31;;;;;;;15.98;13.48;;;16.80;99.90;;;;;;5010038;28;20038;-56
2022/08/03 00:57:58;;;;;;;19.38;14.02;;;16.70;99.90;;;;;;5011398;28;20034;-56
2022/08/03 01:00:25;;;;;;;17.17;13.32;;;16.70;99.90;;;;;;5011324;28;20037;-56
2022/08/03 01:02:52;;;;;;;17.83;12.80;;;16.70;99.90;;;;;;5011392;28;20254;-56
2022/08/03 01:05:19;;;;;;;16.40;12.75;;;16.70;99.90;;;;;;5010139;28;20133;-55
2022/08/03 01:08:09;;;;;;;17.77;12.63;;;16.80;99.90;;;;;;5009875;28;20664;-56
2022/08/03 01:11:02;;;;;;;17.98;13.25;;;16.70;99.90;;;;;;5009442;28;20108;-57
2022/08/03 01:13:39;;;;;;;19.15;13.20;;;16.70;99.90;;;;;;5010591;28;20060;-56
2022/08/03 01:16:22;;;;;;;19.43;13.67;;;16.60;99.90;;;;;;5003551;28;20036;-56
2022/08/03 01:19:01;;;;;;;21.48;14.98;;;16.60;99.90;;;;;;5010217;28;20109;-56
2022/08/03 01:21:32;;;;;;;25.77;14.38;;;16.70;99.90;;;;;;5009644;28;20499;-56
2022/08/03 01:24:04;;;;;;;17.52;13.68;;;16.70;99.90;;;;;;4991334;28;20030;-56
2022/08/03 01:26:51;;;;;;;18.70;13.85;;;16.70;99.90;;;;;;4991411;28;20042;-56
2022/08/03 01:29:17;;;;;;;15.23;13.48;;;16.60;99.90;;;;;;4991373;28;20105;-56
2022/08/03 01:31:50;;;;;;;17.90;13.13;;;16.70;99.90;;;;;;4991357;28;20483;-56
2022/08/03 01:34:19;;;;;;;16.88;13.10;;;16.60;99.90;;;;;;4990974;28;20057;-56
2022/08/03 01:36:51;;;;;;;17.67;13.18;;;16.70;99.90;;;;;;4991560;28;20030;-55
2022/08/03 01:39:19;;;;;;;21.25;13.25;;;16.70;99.90;;;;;;4991002;28;20117;-56
2022/08/03 01:41:54;;;;;;;20.05;13.30;;;16.70;99.90;;;;;;4991282;28;20042;-56
2022/08/03 01:44:21;;;;;;;16.00;12.05;;;16.60;99.90;;;;;;4990869;28;20050;-56
2022/08/03 01:46:50;;;;;;;14.93;12.35;;;16.60;99.90;;;;;;4991112;28;20023;-56
2022/08/03 01:49:16;;;;;;;16.25;12.82;;;16.60;99.90;;;;;;4990749;28;20033;-56
2022/08/03 01:51:46;;;;;;;19.40;11.77;;;16.50;99.90;;;;;;4990943;28;20038;-56
2022/08/03 01:54:12;;;;;;;17.85;11.55;;;16.60;99.90;;;;;;4990110;28;20568;-56
2022/08/03 01:56:39;;;;;;;15.13;11.37;;;16.50;99.90;;;;;;4991276;28;20030;-56
2022/08/03 01:59:07;;;;;;;13.60;11.05;;;16.40;99.90;;;;;;4989916;28;20056;-56
2022/08/03 02:01:35;;;;;;;17.98;12.18;;;16.40;99.90;;;;;;4989000;28;20033;-56
2022/08/03 02:04:02;;;;;;;16.20;12.05;;;16.40;99.90;;;;;;4991006;28;20056;-56
2022/08/03 02:06:32;;;;;;;15.13;12.40;;;16.30;99.90;;;;;;4989065;28;20128;-57
2022/08/03 02:08:59;;;;;;;20.30;13.68;;;16.20;99.90;;;;;;4990086;28;20047;-55
2022/08/03 02:11:26;;;;;;;16.23;13.52;;;16.20;99.90;;;;;;4989490;28;20037;-56
2022/08/03 02:13:53;;;;;;;17.65;14.48;;;16.10;99.90;;;;;;4989052;28;20044;-56
2022/08/03 02:16:23;;;;;;;21.88;14.25;;;16.20;99.90;;;;;;4990313;28;20027;-55
2022/08/03 02:18:50;;;;;;;15.02;12.20;;;16.10;99.90;;;;;;4989877;28;20041;-56
2022/08/03 02:21:16;;;;;;;19.17;14.25;;;16.00;99.90;;;;;;4990569;28;20041;-56
2022/08/03 02:23:42;;;;;;;16.98;13.88;;;16.00;99.90;;;;;;4990143;28;20042;-56
2022/08/03 02:26:13;;;;;;;17.83;13.70;;;16.00;99.90;;;;;;4990226;28;20035;-56
2022/08/03 02:28:42;;;;;;;17.77;14.70;;;15.90;99.90;;;;;;4990557;28;20054;-56
2022/08/03 02:31:14;;;;;;;17.80;13.18;;;15.80;99.90;;;;;;4990134;28;20030;-56
2022/08/03 02:33:48;;;;;;;17.45;14.32;;;15.80;99.90;;;;;;5005407;28;20030;-56
2022/08/03 02:36:15;;;;;;;16.88;13.55;;;15.90;99.90;;;;;;4989404;28;20045;-56
2022/08/03 02:38:45;;;;;;;17.45;13.93;;;15.80;99.90;;;;;;4990274;28;20513;-55
2022/08/03 02:41:19;;;;;;;16.98;13.95;;;15.80;99.90;;;;;;4988863;28;20085;-56
2022/08/03 02:43:50;;;;;;;19.67;14.40;;;15.80;99.90;;;;;;4990430;28;20034;-56
2022/08/03 02:46:19;;;;;;;20.48;13.23;;;15.70;99.90;;;;;;4990087;28;20045;-56
2022/08/03 02:48:46;;;;;;;18.70;12.55;;;15.70;99.90;;;;;;4990218;28;20033;-56
2022/08/03 02:51:14;;;;;;;15.85;12.57;;;15.70;99.90;;;;;;4990230;28;20033;-57
2022/08/03 02:53:39;;;;;;;;;;;15.70;99.90;;;;;;4990375;28;20030;-57
2022/08/03 02:56:08;;;;;;;16.63;11.80;;;15.70;99.90;;;;;;4989982;28;19912;-56
2022/08/03 02:58:36;;;;;;;13.02;10.60;;;15.60;99.90;;;;;;4989917;28;20157;-56
2022/08/03 03:01:02;;;;;;;13.43;11.10;;;15.80;99.90;;;;;;4990152;28;20035;-56
2022/08/03 03:03:28;;;;;;;17.50;11.35;;;15.70;99.90;;;;;;4990348;28;20034;-56
2022/08/03 03:05:55;;;;;;;19.48;11.95;;;15.90;99.90;;;;;;4989554;28;20125;-56
2022/08/03 03:08:21;;;;;;;17.00;13.60;;;15.80;99.90;;;;;;4990089;28;20042;-56
2022/08/03 03:10:48;;;;;;;18.30;13.37;;;15.70;99.90;;;;;;4989850;28;20068;-56
2022/08/03 03:13:15;;;;;;;17.47;13.93;;;15.70;99.90;;;;;;4989953;28;20058;-56
2022/08/03 03:15:42;;;;;;;;;;;15.70;99.90;;;;;;4990170;28;20121;-56
2022/08/03 03:18:09;;;;;;;15.70;12.75;;;15.80;99.90;;;;;;4990074;28;19905;-56
2022/08/03 03:20:37;;;;;;;18.00;15.05;;;15.80;99.90;;;;;;4989586;28;20627;-56
2022/08/03 03:23:04;;;;;;;15.80;13.63;;;15.70;99.90;;;;;;4989876;28;20041;-56
2022/08/03 03:25:32;;;;;;;15.00;13.30;;;15.70;99.90;;;;;;4989784;28;20121;-56
2022/08/03 03:27:59;;;;;;;16.27;12.90;;;15.70;99.90;;;;;;5004937;28;20034;-57
2022/08/03 03:30:26;;;;;;;20.88;13.35;;;15.60;99.90;;;;;;4991190;28;20023;-56
2022/08/03 03:32:52;;;;;;;25.27;12.50;;;15.60;99.90;;;;;;4993758;28;20421;-57
2022/08/03 03:35:20;;;;;;;21.15;12.68;;;15.50;99.90;;;;;;4993782;28;20137;-58
2022/08/03 03:37:45;;;;;;;;;;;15.60;99.90;;;;;;4993935;28;20509;-56
2022/08/03 03:40:12;;;;;;;21.88;14.20;;;15.60;99.90;;;;;;4993228;28;19913;-56
2022/08/03 03:42:38;;;;;;;14.90;12.80;;;15.50;99.90;;;;;;4993636;28;20049;-56
2022/08/03 03:45:06;;;;;;;19.60;13.40;;;15.50;99.90;;;;;;4991878;28;20398;-56
2022/08/03 03:47:33;;;;;;;22.23;14.77;;;15.50;99.90;;;;;;5008892;28;20042;-56
2022/08/03 03:50:00;;;;;;;16.42;13.95;;;15.50;99.90;;;;;;5012907;28;20053;-56
2022/08/03 03:52:26;;;;;;;16.30;12.73;;;15.50;99.90;;;;;;5011319;28;20477;-55
2022/08/03 03:54:51;;;;;;;15.80;11.60;;;15.60;99.90;;;;;;5012383;28;20034;-55
2022/08/03 03:57:17;;;;;;;13.73;10.35;;;15.70;99.90;;;;;;5012731;28;20026;-55
2022/08/03 03:59:43;;;;;;;12.65;10.98;;;15.80;99.90;;;;;;5012878;28;20073;-55
2022/08/03 04:02:10;;;;;;;15.88;12.52;;;15.80;99.90;;;;;;5012778;28;20029;-55
2022/08/03 04:13:19;;;;;;;17.08;13.68;;;15.90;99.90;;;;;;4971037;28;20430;-57
2022/08/03 04:15:46;;;;;;;15.15;13.40;;;15.80;99.90;;;;;;4996976;28;20092;-57
2022/08/03 04:18:14;;;;;;;17.23;13.38;;;15.80;99.90;;;;;;5010136;28;20030;-57
2022/08/03 04:20:46;;;;;;;20.27;14.43;;;15.80;99.90;;;;;;4997648;28;20034;-57
2022/08/03 04:23:14;;;;;;;18.20;15.20;;;15.80;99.90;;;;;;4992795;28;20042;-54
2022/08/03 04:25:42;;;;;;;17.65;14.57;;;15.80;99.90;;;;;;4992243;28;20446;-55
2022/08/03 04:28:09;;;;;;;21.08;13.82;;;15.80;99.90;;;;;;4992669;28;20046;-62
2022/08/03 04:30:37;;;;;;;18.45;14.88;;;15.90;99.90;;;;;;4992425;28;20023;-55
2022/08/03 04:33:04;;;;;;;16.65;14.60;;;15.80;99.90;;;;;;4992650;28;20030;-57
2022/08/03 04:35:33;;;;;;;17.80;15.77;;;15.90;99.90;;;;;;4992352;28;20492;-56
2022/08/03 04:38:06;;;;;;;19.50;14.88;;;16.00;99.90;;;;;;4992682;28;20085;-56
2022/08/03 04:40:38;;;;;;;26.63;16.98;;;16.00;99.90;;;;;;4992483;28;20100;-56
2022/08/03 04:43:05;;;;;;;18.08;13.68;;;15.90;99.90;;;;;;4991980;28;20112;-56
2022/08/03 04:45:32;;;;;;;23.33;15.00;;;16.00;99.90;;;;;;4992304;28;20133;-57
2022/08/03 04:47:58;;;;;;;16.67;13.75;;;16.00;99.90;;;;;;4992164;28;20185;-56
2022/08/03 04:50:26;;;;;;;20.27;14.20;;;16.10;99.90;;;;;;4992347;28;20038;-56
2022/08/03 04:52:52;;;;;;;21.35;15.85;;;16.10;99.90;;;;;;4992063;28;20030;-56
2022/08/03 04:55:29;;;;;;;20.13;16.80;;;16.30;99.90;;;;;;4992062;28;20665;-56
2022/08/03 04:57:55;;;;;;;23.33;16.98;;;16.20;99.90;;;;;;4992144;28;20369;-56
2022/08/03 05:00:21;;;;;;;20.23;17.98;;;16.30;99.90;;;;;;4992304;28;20026;-57
2022/08/03 05:02:47;;;;;;;21.92;17.70;;;16.30;99.90;;;;;;4991949;28;20044;-55
2022/08/03 05:05:14;;;;;;;23.73;18.58;;;16.30;99.90;;;;;;4991966;28;20390;-56
2022/08/03 05:07:41;;;;;;;21.15;17.63;;;16.20;99.90;;;;;;5007246;28;20030;-56
2022/08/03 05:10:10;;;;;;;22.70;17.40;;;16.30;99.90;;;;;;5006282;28;20046;-56
2022/08/03 05:12:36;;;;;;;25.92;18.65;;;16.40;99.90;;;;;;4991557;28;20026;-57
2022/08/03 05:15:04;;;;;;;21.17;17.20;;;16.30;99.90;;;;;;4991723;28;20502;-56
2022/08/03 05:17:30;;;;;;;23.38;19.20;;;16.20;99.90;;;;;;5006719;28;20029;-56
2022/08/03 05:19:56;;;;;;;26.83;20.67;;;16.20;99.90;;;;;;5006847;28;20030;-56
2022/08/03 05:22:22;;;;;;;23.77;20.27;;;16.30;99.90;;;;;;4990927;28;20042;-56
2022/08/03 05:24:47;;;;;;;24.38;19.27;;;16.40;99.90;;;;;;4991787;28;20377;-56
2022/08/03 05:27:18;;;;;;;30.65;20.83;;;16.40;99.90;;;;;;4991784;28;20162;-57
2022/08/03 05:29:44;;;;;;;33.92;24.00;;;16.50;99.90;;;;;;4991636;28;20047;-56
2022/08/03 05:32:10;;;;;;;34.42;25.63;;;16.60;99.90;;;;;;4991142;28;20485;-56
2022/08/03 05:34:36;;;;;;;36.17;29.30;;;16.80;99.90;;;;;;4991429;28;20058;-55
2022/08/03 05:37:02;;;;;;;35.42;28.73;;;16.80;99.90;;;;;;4991707;28;20042;-56
2022/08/03 05:39:28;;;;;;;39.42;29.63;;;16.90;99.90;;;;;;4991538;28;20474;-56
2022/08/03 05:41:53;;;;;;;38.20;29.77;;;17.00;99.90;;;;;;4991409;28;20118;-56
2022/08/03 05:44:19;;;;;;;37.25;30.10;;;17.10;99.90;;;;;;4991134;28;20026;-56
2022/08/03 05:46:45;;;;;;;38.25;31.33;;;17.20;99.90;;;;;;4991322;28;20042;-56
2022/08/03 05:49:11;;;;;;;38.47;30.80;;;17.20;99.90;;;;;;4991381;28;20026;-56
2022/08/03 05:51:37;;;;;;;36.03;30.55;;;17.30;99.90;;;;;;5000397;28;20030;-56
2022/08/03 05:54:03;;;;;;;36.15;29.63;;;17.50;99.90;;;;;;4999614;28;20108;-56
2022/08/03 05:56:29;;;;;;;34.13;28.73;;;17.60;99.90;;;;;;5000033;28;20402;-56
2022/08/03 05:58:54;;;;;;;30.15;26.67;;;17.70;99.90;;;;;;4999418;28;20026;-56
2022/08/03 06:01:21;;;;;;;34.58;26.90;;;17.80;99.90;;;;;;5001177;28;20018;-56
2022/08/03 06:03:48;;;;;;;34.72;27.38;;;17.80;99.90;;;;;;4998372;28;20025;-56
2022/08/03 06:06:14;;;;;;;34.03;28.63;;;17.90;99.90;;;;;;4989474;28;20035;-56
2022/08/03 06:08:41;;;;;;;32.90;28.08;;;18.10;99.90;;;;;;4989659;28;20121;-55
2022/08/03 06:11:07;;;;;;;35.78;28.58;;;18.20;99.90;;;;;;4987622;28;20030;-55
2022/08/03 06:13:32;;;;;;;28.23;22.67;;;18.20;99.90;;;;;;4989329;28;20030;-56
2022/08/03 06:15:58;;;;;;;27.35;23.17;;;18.40;99.90;;;;;;4989763;28;20501;-55
2022/08/03 06:18:25;;;;;;;33.22;24.27;;;18.50;99.90;;;;;;4991107;28;20042;-55
2022/08/03 06:20:52;;;;;;;27.50;23.02;;;18.50;99.90;;;;;;4990760;28;20026;-56
2022/08/03 06:23:18;;;;;;;29.45;22.25;;;18.50;99.90;;;;;;4990545;28;20034;-56
2022/08/03 06:25:44;;;;;;;28.02;23.50;;;18.70;99.90;;;;;;4990683;28;20819;-55
2022/08/03 06:28:09;;;;;;;25.45;22.65;;;18.80;99.90;;;;;;4990822;28;20555;-56
2022/08/03 06:30:35;;;;;;;27.67;22.83;;;18.90;99.90;;;;;;4990028;28;20031;-56
2022/08/03 06:33:01;;;;;;;29.60;22.98;;;19.00;99.90;;;;;;4989398;28;20034;-56
2022/08/03 06:35:27;;;;;;;30.40;25.15;;;19.00;99.90;;;;;;4990482;28;20022;-56
2022/08/03 06:37:53;;;;;;;26.25;23.30;;;19.20;99.90;;;;;;4990282;28;20046;-56
2022/08/03 06:40:31;;;;;;;27.50;22.63;;;19.30;99.90;;;;;;4987983;28;20490;-56
2022/08/03 06:43:02;;;;;;;28.10;23.80;;;19.50;99.90;;;;;;4985929;28;20393;-56
2022/08/03 06:45:28;;;;;;;25.90;21.77;;;19.50;99.90;;;;;;4989038;28;20046;-56
2022/08/03 06:48:05;;;;;;;27.77;22.77;;;19.60;99.90;;;;;;4989482;28;20478;-56
2022/08/03 06:50:32;;;;;;;26.52;21.38;;;19.70;99.90;;;;;;4987868;28;20029;-57
2022/08/03 06:52:58;;;;;;;26.58;21.10;;;19.70;99.90;;;;;;4988853;28;20114;-57
2022/08/03 06:55:23;;;;;;;28.15;21.55;;;19.80;99.90;;;;;;4995820;28;20500;-57
2022/08/03 06:57:49;;;;;;;24.55;21.17;;;19.80;99.90;;;;;;5004244;28;20041;-56
2022/08/03 07:00:15;;;;;;;27.38;20.33;;;19.90;99.90;;;;;;5010093;28;20022;-58
2022/08/03 07:02:41;;;;;;;24.23;20.40;;;20.00;99.90;;;;;;4992818;28;20460;-59
2022/08/03 07:05:08;;;;;;;38.85;29.88;;;20.20;99.90;;;;;;4990570;28;20114;-58
2022/08/03 07:07:33;;;;;;;25.58;21.10;;;20.20;99.90;;;;;;4999188;28;20049;-58
2022/08/03 07:09:59;;;;;;;22.25;18.50;;;20.30;99.90;;;;;;4993997;28;20051;-56
2022/08/03 07:12:26;;;;;;;24.00;18.73;;;20.40;99.90;;;;;;4996620;28;20544;-56
2022/08/03 07:14:52;;;;;;;;;;;20.60;99.90;;;;;;4993576;28;20061;-56
2022/08/03 07:17:18;;;;;;;24.40;19.00;;;20.80;99.90;;;;;;4993652;28;19906;-56
2022/08/03 07:19:43;;;;;;;21.88;16.85;;;21.00;99.90;;;;;;4994266;28;20193;-56
2022/08/03 07:22:10;;;;;;;26.08;18.50;;;21.00;99.90;;;;;;4993753;28;20598;-55
2022/08/03 07:24:36;;;;;;;22.48;18.73;;;21.00;99.90;;;;;;4993717;28;20019;-57
2022/08/03 07:27:02;;;;;;;22.77;17.33;;;21.30;99.90;;;;;;4992847;28;20069;-56
2022/08/03 07:29:27;;;;;;;23.55;16.20;;;21.20;99.90;;;;;;4992272;28;20026;-56
2022/08/03 07:31:53;;;;;;;20.50;15.35;;;21.20;99.90;;;;;;4992492;28;20041;-56
2022/08/03 07:34:20;;;;;;;14.52;13.02;;;21.40;99.90;;;;;;5007771;28;20077;-56
2022/08/03 07:36:46;;;;;;;15.80;13.30;;;21.40;99.90;;;;;;4993173;28;20027;-56
2022/08/03 07:39:12;;;;;;;17.38;14.02;;;21.50;99.90;;;;;;4993281;28;20038;-56
2022/08/03 07:41:37;;;;;;;16.70;13.68;;;21.80;99.90;;;;;;4993660;28;20037;-57
2022/08/03 07:44:03;;;;;;;20.00;12.90;;;21.80;99.90;;;;;;4993744;28;20026;-56
2022/08/03 07:46:29;;;;;;;14.63;12.18;;;21.70;99.90;;;;;;4993235;28;20128;-57
2022/08/03 07:48:55;;;;;;;19.80;12.32;;;22.10;99.90;;;;;;4993721;28;20101;-55
2022/08/03 07:51:20;;;;;;;16.38;11.75;;;22.30;99.90;;;;;;4993418;28;20022;-56
2022/08/03 07:53:46;;;;;;;15.23;10.50;;;22.40;99.90;;;;;;4991974;28;20097;-56
2022/08/03 07:56:12;;;;;;;13.07;10.07;;;22.40;99.90;;;;;;4992117;28;20030;-55
2022/08/03 07:58:37;;;;;;;14.18;10.05;;;22.30;99.90;;;;;;4992323;28;20473;-56
2022/08/03 08:01:03;;;;;;;13.02;9.02;;;22.20;99.90;;;;;;4992481;28;20038;-57
2022/08/03 08:03:29;;;;;;;14.65;9.07;;;22.30;99.90;;;;;;4992242;28;20033;-56
2022/08/03 08:05:55;;;;;;;11.43;8.75;;;22.40;99.90;;;;;;4991384;28;20038;-56
2022/08/03 08:08:21;;;;;;;14.40;8.43;;;22.50;99.90;;;;;;4992052;28;20038;-56
2022/08/03 08:10:47;;;;;;;10.95;7.97;;;22.70;99.90;;;;;;4991837;28;20382;-55
2022/08/03 08:13:13;;;;;;;14.55;10.15;;;22.60;99.90;;;;;;4991878;28;20568;-56
2022/08/03 08:15:38;;;;;;;8.88;7.57;;;22.90;99.90;;;;;;4991742;28;20026;-56
2022/08/03 08:18:04;;;;;;;10.40;8.63;;;22.90;99.90;;;;;;4990904;28;20838;-56
2022/08/03 08:20:33;;;;;;;14.90;10.02;;;23.00;99.90;;;;;;4991593;28;20042;-56
2022/08/03 08:23:04;;;;;;;68.97;53.30;;;23.30;99.90;;;;;;4991862;28;20026;-55
2022/08/03 08:25:31;;;;;;;12.40;9.27;;;23.30;99.90;;;;;;4991429;28;20057;-55
2022/08/03 08:28:00;;;;;;;12.60;8.13;;;23.40;99.90;;;;;;4991111;28;20050;-57
2022/08/03 08:30:26;;;;;;;8.52;5.88;;;23.40;99.90;;;;;;4991935;28;20034;-55
2022/08/03 08:32:51;;;;;;;8.18;6.10;;;23.50;99.90;;;;;;4991385;28;20038;-55
2022/08/03 08:35:17;;;;;;;10.32;7.63;;;23.40;99.90;;;;;;4990883;28;20057;-55
2022/08/03 08:37:43;;;;;;;10.80;7.25;;;23.30;99.90;;;;;;4991782;28;20544;-55
2022/08/03 08:40:12;;;;;;;8.40;7.10;;;23.30;99.90;;;;;;4991342;28;20482;-55
2022/08/03 08:42:42;;;;;;;12.50;7.95;;;23.30;99.90;;;;;;4991237;28;20030;-55
2022/08/03 08:45:10;;;;;;;11.05;7.20;;;23.40;99.90;;;;;;4988209;28;20106;-55
2022/08/03 08:47:39;;;;;;;11.85;8.15;;;23.60;99.90;;;;;;4991001;28;20509;-55
2022/08/03 08:50:07;;;;;;;10.40;7.65;;;23.40;99.90;;;;;;4991392;28;20037;-55
2022/08/03 08:52:34;;;;;;;5.80;3.90;;;23.60;99.90;;;;;;4991857;28;20038;-55
2022/08/03 08:55:05;;;;;;;7.38;4.70;;;23.70;99.90;;;;;;4998959;28;20402;-55
2022/08/03 08:57:49;;;;;;;7.10;4.40;;;23.80;99.90;;;;;;4998098;28;20034;-55
2022/08/03 09:00:15;;;;;;;11.18;6.15;;;23.80;99.90;;;;;;4998785;28;20030;-56
2022/08/03 09:02:43;;;;;;;9.88;6.78;;;23.80;99.90;;;;;;4990058;28;20033;-54
2022/08/03 09:05:15;;;;;;;8.18;5.65;;;24.00;99.90;;;;;;4990674;28;20169;-55
2022/08/03 09:07:46;;;;;;;7.43;5.20;;;24.00;99.90;;;;;;4990328;28;20077;-55
2022/08/03 09:10:14;;;;;;;6.63;5.50;;;24.10;99.90;;;;;;4990854;28;20076;-55
2022/08/03 09:12:51;;;;;;;8.80;5.45;;;24.20;99.90;;;;;;4990524;28;20015;-56
2022/08/03 09:15:25;;;;;;;13.88;5.85;;;24.20;99.90;;;;;;4990591;28;20046;-55
2022/08/03 09:17:58;;;;;;;8.00;4.75;;;24.30;99.90;;;;;;4990681;28;20034;-55
2022/08/03 09:20:25;;;;;;;26.80;23.27;;;24.40;99.90;;;;;;4988803;28;20022;-54
2022/08/03 09:23:07;;;;;;;7.05;5.90;;;24.40;99.90;;;;;;4991479;28;20565;-55
2022/08/03 09:25:36;;;;;;;5.22;4.03;;;24.60;99.90;;;;;;4988917;28;20050;-55
2022/08/03 09:28:17;;;;;;;6.25;4.50;;;24.90;99.90;;;;;;4991110;28;20028;-54
2022/08/03 09:30:56;;;;;;;7.43;5.50;;;25.30;99.90;;;;;;4991233;28;20774;-55
2022/08/03 09:33:23;;;;;;;6.72;4.13;;;25.20;98.40;;;;;;4991473;28;20561;-54
2022/08/03 09:35:49;;;;;;;5.03;3.08;;;25.40;97.10;;;;;;4991110;28;20274;-56
2022/08/03 09:38:17;;;;;;;9.75;3.55;;;25.50;92.70;;;;;;4991125;28;20776;-55
2022/08/03 09:40:44;;;;;;;5.45;2.92;;;25.70;91.20;;;;;;4991326;28;20054;-54
2022/08/03 09:43:10;;;;;;;;;;;25.70;91.10;;;;;;4991793;28;20773;-55
2022/08/03 09:45:37;;;;;;;4.82;3.85;;;25.70;92.20;;;;;;4989430;28;19914;-55
2022/08/03 09:48:24;;;;;;;79.65;65.28;;;25.60;96.20;;;;;;4987563;28;20102;-55
2022/08/03 09:50:58;;;;;;;5.57;4.53;;;25.70;92.60;;;;;;4990146;28;20026;-55
2022/08/03 09:53:24;;;;;;;6.07;4.50;;;25.90;95.70;;;;;;4990281;28;20019;-55
2022/08/03 09:55:50;;;;;;;6.77;4.80;;;26.10;94.10;;;;;;4990100;28;20466;-55
2022/08/03 09:58:15;;;;;;;6.22;4.63;;;26.20;94.10;;;;;;4990735;28;20038;-55
2022/08/03 10:01:03;;;;;;;5.70;3.70;;;26.10;93.60;;;;;;4990923;28;20018;-55
2022/08/03 10:03:34;;;;;;;7.28;3.78;;;26.20;90.30;;;;;;4989871;28;20026;-55
2022/08/03 10:06:24;;;;;;;9.10;4.65;;;26.30;90.60;;;;;;4990874;28;20145;-55
2022/08/03 10:09:15;;;;;;;9.23;4.25;;;26.20;95.20;;;;;;4990739;28;20069;-55
2022/08/03 10:11:45;;;;;;;7.25;3.80;;;26.00;92.00;;;;;;4990856;28;20515;-55
2022/08/03 10:14:22;;;;;;;11.73;4.40;;;25.90;92.50;;;;;;4990802;28;20030;-55
2022/08/03 10:16:48;;;;;;;8.25;4.20;;;25.90;93.00;;;;;;4990776;28;20505;-55
2022/08/03 10:19:14;;;;;;;7.73;3.97;;;25.90;94.60;;;;;;4991143;28;20418;-55
2022/08/03 10:21:50;;;;;;;5.93;4.57;;;26.10;92.70;;;;;;4989656;28;20046;-55
2022/08/03 10:24:23;;;;;;;8.55;5.10;;;26.10;94.60;;;;;;5004134;28;20117;-55
2022/08/03 10:26:53;;;;;;;7.53;4.13;;;26.50;95.10;;;;;;4989952;28;20042;-58
2022/08/03 10:29:23;;;;;;;6.43;4.63;;;26.70;94.10;;;;;;4990386;28;20026;-55
2022/08/03 10:31:53;;;;;;;8.77;4.90;;;26.60;91.80;;;;;;4990511;28;20080;-54
2022/08/03 10:34:23;;;;;;;6.18;4.90;;;26.70;95.10;;;;;;4990605;28;20089;-54
2022/08/03 10:36:55;;;;;;;9.98;5.10;;;26.90;89.50;;;;;;5005707;28;20125;-54
2022/08/03 10:39:23;;;;;;;6.22;5.00;;;26.90;92.00;;;;;;4990372;28;20036;-54
2022/08/03 10:41:50;;;;;;;7.07;5.57;;;26.90;89.50;;;;;;4990653;28;20049;-54
2022/08/03 10:44:19;;;;;;;;;;;27.10;95.10;;;;;;4990504;28;20026;-54
2022/08/03 10:46:47;;;;;;;5.35;4.55;;;27.10;95.10;;;;;;4990321;28;19972;-54
2022/08/03 10:49:14;;;;;;;7.13;4.60;;;27.20;91.80;;;;;;4990564;28;20109;-54
2022/08/03 10:51:43;;;;;;;7.50;5.00;;;27.30;95.00;;;;;;4990520;28;20026;-55
2022/08/03 10:57:46;;;;;;;7.57;4.70;;;27.70;92.20;;;;;;4990500;28;20517;-54
2022/08/03 11:00:23;;;;;;;6.88;4.57;;;27.80;92.00;;;;;;4990209;28;20017;-54
2022/08/03 11:03:09;;;;;;;6.67;5.57;;;27.80;86.00;;;;;;4990677;28;20708;-55
2022/08/03 11:05:43;;;;;;;9.85;5.43;;;27.90;84.00;;;;;;4989943;28;20432;-55
2022/08/03 11:08:18;;;;;;;8.73;4.35;;;27.80;88.10;;;;;;4990037;28;20042;-55
2022/08/03 11:10:44;;;;;;;8.95;4.70;;;27.80;87.00;;;;;;4990186;28;20553;-55
2022/08/03 11:13:16;;;;;;;9.00;4.85;;;27.80;82.90;;;;;;4990190;28;20077;-55
2022/08/03 11:15:48;;;;;;;8.23;4.20;;;27.80;84.70;;;;;;5004974;28;20030;-55
2022/08/03 11:18:15;;;;;;;7.07;4.95;;;27.80;79.70;;;;;;4989983;28;20057;-55
2022/08/03 11:20:52;;;;;;;7.68;4.65;;;27.90;86.90;;;;;;4990433;28;20048;-55
2022/08/03 11:23:47;;;;;;;6.97;5.10;;;28.20;87.30;;;;;;4990304;28;20478;-55
2022/08/03 11:26:17;;;;;;;5.45;4.20;;;28.60;84.90;;;;;;4990122;28;20386;-55
2022/08/03 11:28:44;;;;;;;6.63;4.68;;;28.70;81.50;;;;;;4989914;28;20053;-55
2022/08/03 11:31:23;;;;;;;7.60;4.72;;;28.50;80.20;;;;;;4990053;28;20030;-54
2022/08/03 11:34:09;;;;;;;6.57;4.25;;;28.30;83.60;;;;;;4990306;28;20031;-55
2022/08/03 11:37:23;;;;;;;5.35;4.18;;;28.00;76.70;;;;;;5004818;28;20084;-56
2022/08/03 11:39:52;;;;;;;6.50;4.22;;;27.90;81.30;;;;;;4929558;29;20479;-55
2022/08/03 11:42:23;;;;;;;7.05;4.28;;;27.70;78.90;;;;;;4984191;28;20039;-56
2022/08/03 11:44:50;;;;;;;6.93;4.50;;;27.70;81.40;;;;;;4989762;28;20117;-57
2022/08/03 11:47:17;;;;;;;11.95;4.57;;;27.90;86.50;;;;;;4990498;28;20168;-56
2022/08/03 11:49:47;;;;;;;8.55;3.55;;;28.00;90.80;;;;;;4990017;28;20027;-55
2022/08/03 11:52:14;;;;;;;4.95;4.35;;;28.00;74.30;;;;;;4992415;28;20039;-54
2022/08/03 11:54:41;;;;;;;5.78;3.85;;;28.40;84.30;;;;;;4993723;28;20084;-55
2022/08/03 11:57:07;;;;;;;6.85;4.57;;;28.50;86.20;;;;;;4993498;28;20030;-56
2022/08/03 11:59:34;;;;;;;6.30;4.00;;;28.70;81.70;;;;;;4993655;28;20212;-57
2022/08/03 12:02:11;;;;;;;6.47;4.68;;;28.90;77.30;;;;;;4993699;28;20092;-56
2022/08/03 12:05:00;;;;;;;5.95;4.68;;;28.90;76.20;;;;;;4993527;28;20093;-55
2022/08/03 12:07:28;;;;;;;4.88;3.90;;;29.00;81.20;;;;;;4993549;28;20030;-56
2022/08/03 12:10:09;;;;;;;6.70;4.78;;;29.20;74.40;;;;;;4992714;28;20955;-55
2022/08/03 12:12:35;;;;;;;5.97;4.30;;;29.50;74.10;;;;;;4993157;28;20092;-54
2022/08/03 12:15:02;;;;;;;4.90;3.90;;;29.60;75.10;;;;;;4993068;28;20066;-56
2022/08/03 12:17:38;;;;;;;7.25;4.22;;;29.70;67.90;;;;;;4993011;28;20822;-55
2022/08/03 12:20:06;;;;;;;5.43;4.10;;;29.70;76.70;;;;;;4992837;28;20081;-55
2022/08/03 12:22:32;;;;;;;6.75;4.65;;;29.80;69.90;;;;;;4993004;28;20030;-55
2022/08/03 12:24:58;;;;;;;6.28;4.20;;;30.00;77.30;;;;;;4992828;28;20064;-55
2022/08/03 12:27:26;;;;;;;4.72;4.00;;;30.10;76.90;;;;;;4992902;28;20066;-55
2022/08/03 12:29:54;;;;;;;7.35;5.10;;;30.20;71.60;;;;;;4992391;28;20394;-55
2022/08/03 12:32:19;;;;;;;6.97;4.90;;;30.20;69.60;;;;;;4992982;28;20152;-56
2022/08/03 12:34:47;;;;;;;7.60;5.07;;;30.40;74.60;;;;;;4992317;28;20554;-55
2022/08/03 12:37:13;;;;;;;9.48;6.07;;;30.30;66.70;;;;;;4992743;28;20505;-54
2022/08/03 12:39:39;;;;;;;7.20;4.87;;;30.30;71.60;;;;;;4992113;28;20034;-55
2022/08/03 12:42:05;;;;;;;7.72;5.50;;;30.20;64.80;;;;;;4991613;28;20279;-55
2022/08/03 12:44:33;;;;;;;6.43;4.85;;;30.10;65.60;;;;;;5001935;28;20153;-55
2022/08/03 12:47:01;;;;;;;7.30;5.07;;;29.90;66.10;;;;;;5000970;28;20069;-55
2022/08/03 12:49:27;;;;;;;10.05;4.68;;;29.90;66.10;;;;;;5007679;28;20032;-55
2022/08/03 12:51:52;;;;;;;23.77;19.85;;;30.10;68.90;;;;;;4992279;28;20038;-55
2022/08/03 12:54:23;;;;;;;6.03;5.28;;;30.20;69.10;;;;;;4991788;28;20022;-56
2022/08/03 12:57:12;;;;;;;6.80;5.43;;;30.20;74.90;;;;;;4990952;28;20030;-56